Time;durP1;ratioP1;P1;durP2;ratioP2;P2;SDS_P1;SDS_P2;PMS_P1;PMS_P2;Temp;Humidity;BMP_temperature;BMP_pressure;BME280_temperature;BME280_humidity;BME280_pressure;Samples;Min_cycle;Max_cycle;Signal;HPM_P1;HPM_P2
2023/05/05 00:01:51;;;;;;;7.97;3.22;;;;;;;;;;6184418;23;20389;-87
2023/05/05 00:04:35;;;;;;;7.00;3.17;;;;;;;;;;6184340;23;20024;-88
2023/05/05 00:07:20;;;;;;;8.05;3.45;;;;;;;;;;6184733;23;20362;-89
2023/05/05 00:10:05;;;;;;;6.97;3.15;;;;;;;;;;6184772;23;20031;-89
2023/05/05 00:12:49;;;;;;;8.55;3.15;;;;;;;;;;6184134;23;20019;-89
2023/05/05 00:15:35;;;;;;;8.77;3.28;;;;;;;;;;6141381;23;20020;-87
2023/05/05 00:18:20;;;;;;;6.80;3.95;;;;;;;;;;6163202;23;20068;-88
2023/05/05 00:21:05;;;;;;;8.98;3.53;;;;;;;;;;6164285;23;20087;-87
2023/05/05 00:23:50;;;;;;;5.63;3.30;;;;;;;;;;6164088;23;20016;-88
2023/05/05 00:26:34;;;;;;;8.63;3.67;;;;;;;;;;6163896;23;20085;-88
2023/05/05 00:29:19;;;;;;;5.07;3.28;;;;;;;;;;6164087;23;20043;-88
2023/05/05 00:32:04;;;;;;;6.80;4.05;;;;;;;;;;6164315;23;20024;-88
2023/05/05 00:34:48;;;;;;;7.50;3.30;;;;;;;;;;6185892;23;20019;-88
2023/05/05 00:37:33;;;;;;;6.95;3.58;;;;;;;;;;6185897;23;20020;-87
2023/05/05 00:40:18;;;;;;;7.68;4.28;;;;;;;;;;6186507;23;20016;-88
2023/05/05 00:43:03;;;;;;;7.75;3.50;;;;;;;;;;6186462;23;20135;-88
2023/05/05 00:45:51;;;;;;;9.25;3.45;;;;;;;;;;6186041;23;20083;-88
2023/05/05 00:48:36;;;;;;;8.88;3.80;;;;;;;;;;6185991;23;20016;-88
2023/05/05 00:51:21;;;;;;;8.35;3.30;;;;;;;;;;6164003;23;20020;-88
2023/05/05 00:54:06;;;;;;;8.02;4.03;;;;;;;;;;6186739;23;20070;-88
2023/05/05 00:56:50;;;;;;;5.80;3.70;;;;;;;;;;6185951;23;20512;-87
2023/05/05 00:59:36;;;;;;;7.22;3.53;;;;;;;;;;6186259;23;20013;-84
2023/05/05 01:02:21;;;;;;;9.30;3.85;;;;;;;;;;6186447;23;20096;-89
2023/05/05 01:05:08;;;;;;;8.75;3.58;;;;;;;;;;6186369;23;20066;-87
2023/05/05 01:07:59;;;;;;;5.85;3.15;;;;;;;;;;6185673;23;20055;-88
2023/05/05 01:10:51;;;;;;;7.63;3.40;;;11.70;88.30;;;;;;6185461;23;20063;-88
2023/05/05 01:14:15;;;;;;;12.30;3.47;;;;;;;;;;6185633;23;20395;-85
2023/05/05 01:17:09;;;;;;;9.27;4.15;;;11.70;88.90;;;;;;6036956;23;20071;-87
2023/05/05 01:19:58;;;;;;;26.92;5.80;;;11.70;88.70;;;;;;6036967;23;20461;-87
2023/05/05 01:22:47;;;;;;;7.97;3.53;;;;;;;;;;6155894;23;20450;-88
2023/05/05 01:25:34;;;;;;;9.30;3.70;;;;;;;;;;6163738;23;20059;-87
2023/05/05 01:28:34;;;;;;;8.45;3.33;;;11.70;89.30;;;;;;6185890;23;20567;-88
2023/05/05 01:31:42;;;;;;;8.70;3.83;;;;;;;;;;6163706;23;20036;-87
2023/05/05 01:34:35;;;;;;;7.50;3.47;;;11.70;89.80;;;;;;6163649;23;20076;-86
2023/05/05 01:37:29;;;;;;;6.80;3.83;;;;;;;;;;6185896;23;20092;-88
2023/05/05 01:40:15;;;;;;;7.68;3.70;;;;;;;;;;6163420;23;20047;-86
2023/05/05 01:43:01;;;;;;;8.25;3.55;;;;;;;;;;6163251;23;20584;-87
2023/05/05 01:45:46;;;;;;;9.57;3.38;;;;;;;;;;6185233;23;20039;-87
2023/05/05 01:48:32;;;;;;;4.63;3.30;;;;;;;;;;6185762;23;20095;-87
2023/05/05 01:51:18;;;;;;;9.95;3.80;;;;;;;;;;6185524;23;20118;-86
2023/05/05 01:54:04;;;;;;;6.82;3.60;;;;;;;;;;6163014;23;20012;-87
2023/05/05 01:56:53;;;;;;;6.20;3.55;;;;;;;;;;6184886;23;20499;-87
2023/05/05 01:59:39;;;;;;;6.03;3.58;;;;;;;;;;6185376;23;20017;-88
2023/05/05 02:02:26;;;;;;;8.20;3.30;;;11.60;90.60;;;;;;6163333;23;20096;-87
2023/05/05 02:05:12;;;;;;;5.38;3.38;;;;;;;;;;6185531;23;20012;-88
2023/05/05 02:07:59;;;;;;;9.98;3.53;;;11.50;90.80;;;;;;6162676;23;20015;-88
2023/05/05 02:10:44;;;;;;;8.05;3.65;;;;;;;;;;6185076;23;20064;-84
2023/05/05 02:13:31;;;;;;;8.23;3.42;;;;;;;;;;6162923;23;20020;-87
2023/05/05 02:16:17;;;;;;;7.32;3.53;;;;;;;;;;6162960;23;20016;-86
2023/05/05 02:19:04;;;;;;;8.73;4.47;;;;;;;;;;6162026;23;20139;-88
2023/05/05 02:21:49;;;;;;;4.15;3.25;;;;;;;;;;6162549;23;20067;-88
2023/05/05 02:24:34;;;;;;;6.47;4.68;;;;;;;;;;6185641;23;20471;-87
2023/05/05 02:27:21;;;;;;;10.18;4.22;;;11.50;91.70;;;;;;6163268;23;20020;-87
2023/05/05 02:30:08;;;;;;;11.65;4.43;;;11.30;91.70;;;;;;6162538;23;20188;-88
2023/05/05 02:32:54;;;;;;;8.60;4.53;;;;;;;;;;6164758;23;20043;-87
2023/05/05 02:35:40;;;;;;;9.07;3.65;;;;;;;;;;6171666;23;20016;-89
2023/05/05 02:38:27;;;;;;;9.63;3.53;;;;;;;;;;6185240;23;20028;-87
2023/05/05 02:41:13;;;;;;;7.43;3.95;;;;;;;;;;6184676;23;20020;-87
2023/05/05 02:43:59;;;;;;;11.65;4.07;;;;;;;;;;6184525;23;20016;-88
2023/05/05 02:46:44;;;;;;;10.38;3.88;;;;;;;;;;6185098;23;20016;-88
2023/05/05 02:49:28;;;;;;;11.52;3.95;;;;;;;;;;6141971;23;20067;-88
2023/05/05 02:52:13;;;;;;;7.60;4.20;;;;;;;;;;6162593;23;20031;-87
2023/05/05 02:55:01;;;;;;;9.98;4.25;;;;;;;;;;6184611;23;20016;-88
2023/05/05 02:57:45;;;;;;;9.52;4.97;;;;;;;;;;6185084;23;20458;-88
2023/05/05 03:00:40;;;;;;;9.80;4.38;;;;;;;;;;6184831;23;20012;-87
2023/05/05 03:03:35;;;;;;;9.52;3.70;;;11.20;92.70;;;;;;6162621;23;20075;-88
2023/05/05 03:06:21;;;;;;;6.25;3.50;;;;;;;;;;6185020;23;20068;-88
2023/05/05 03:09:09;;;;;;;12.50;4.32;;;;;;;;;;6184736;23;20011;-86
2023/05/05 03:12:03;;;;;;;7.03;3.58;;;11.20;93.20;;;;;;6184422;23;20096;-87
2023/05/05 03:14:53;;;;;;;9.20;3.97;;;;;;;;;;6184982;23;20072;-88
2023/05/05 03:17:40;;;;;;;6.13;3.83;;;11.10;93.20;;;;;;6184969;23;20103;-87
2023/05/05 03:20:25;;;;;;;11.18;3.85;;;;;;;;;;6184829;23;20020;-88
2023/05/05 03:23:12;;;;;;;7.10;4.35;;;11.20;93.40;;;;;;6161982;23;20015;-88
2023/05/05 03:25:56;;;;;;;8.35;4.22;;;;;;;;;;6184328;23;20135;-88
2023/05/05 03:28:40;;;;;;;8.30;4.30;;;;;;;;;;6184909;23;20028;-89
2023/05/05 03:31:27;;;;;;;11.35;3.97;;;;;;;;;;6162610;23;20462;-89
2023/05/05 03:34:14;;;;;;;6.00;4.65;;;;;;;;;;6162166;23;20016;-88
2023/05/05 03:36:59;;;;;;;7.72;4.00;;;;;;;;;;6161689;23;20028;-87
2023/05/05 03:39:43;;;;;;;10.32;4.00;;;;;;;;;;6184739;23;20053;-88
2023/05/05 03:42:28;;;;;;;7.15;4.25;;;;;;;;;;6184832;23;20024;-88
2023/05/05 03:45:12;;;;;;;13.10;6.13;;;;;;;;;;6184184;23;20075;-88
2023/05/05 03:47:57;;;;;;;8.15;4.15;;;;;;;;;;6162026;23;20020;-86
2023/05/05 03:50:44;;;;;;;9.65;4.22;;;;;;;;;;6162446;23;20016;-88
2023/05/05 03:53:29;;;;;;;8.68;4.18;;;;;;;;;;6162178;23;20387;-89
2023/05/05 03:56:13;;;;;;;8.00;4.50;;;;;;;;;;6184139;23;20012;-88
2023/05/05 03:58:58;;;;;;;6.45;4.72;;;;;;;;;;6184395;23;20040;-85
2023/05/05 04:01:44;;;;;;;9.40;4.60;;;;;;;;;;6162183;23;20399;-89
2023/05/05 04:04:28;;;;;;;8.52;5.05;;;;;;;;;;6184946;23;20067;-91
2023/05/05 04:07:13;;;;;;;6.22;4.28;;;;;;;;;;6184180;23;20060;-91
2023/05/05 04:09:57;;;;;;;9.90;5.78;;;;;;;;;;6162584;23;20451;-90
2023/05/05 04:12:42;;;;;;;13.48;5.63;;;;;;;;;;6162548;23;20020;-93
2023/05/05 04:15:26;;;;;;;9.18;4.82;;;;;;;;;;6184667;23;20024;-91
2023/05/05 04:18:11;;;;;;;13.18;5.70;;;;;;;;;;6184628;23;20016;-89
2023/05/05 04:20:55;;;;;;;10.65;6.25;;;;;;;;;;6184603;23;20028;-88
2023/05/05 04:23:43;;;;;;;10.82;6.22;;;;;;;;;;6141388;23;20083;-87
2023/05/05 04:26:28;;;;;;;11.80;6.75;;;;;;;;;;6162471;23;20019;-87
2023/05/05 04:29:12;;;;;;;14.95;7.68;;;;;;;;;;6184064;23;20352;-87
2023/05/05 04:31:57;;;;;;;14.27;6.90;;;;;;;;;;6141207;23;20039;-88
2023/05/05 04:34:41;;;;;;;12.25;6.82;;;;;;;;;;6161995;23;20356;-88
2023/05/05 04:37:25;;;;;;;12.45;7.32;;;;;;;;;;6183572;23;20080;-87
2023/05/05 04:40:10;;;;;;;11.57;7.13;;;;;;;;;;6161484;23;20020;-88
2023/05/05 04:42:55;;;;;;;11.40;7.18;;;;;;;;;;6184271;23;20056;-88
2023/05/05 04:45:39;;;;;;;13.57;7.45;;;;;;;;;;6161970;23;20019;-87
2023/05/05 04:48:24;;;;;;;14.68;7.10;;;;;;;;;;6161397;23;20621;-86
2023/05/05 04:51:08;;;;;;;19.80;7.63;;;;;;;;;;6183849;23;20020;-87
2023/05/05 04:53:53;;;;;;;18.98;8.35;;;;;;;;;;6141660;23;20024;-89
2023/05/05 04:56:37;;;;;;;20.67;8.60;;;;;;;;;;6162372;23;20455;-90
2023/05/05 04:59:22;;;;;;;14.20;8.00;;;;;;;;;;6141132;23;20021;-90
2023/05/05 05:02:06;;;;;;;12.90;8.85;;;;;;;;;;6184209;23;20040;-89
2023/05/05 05:04:51;;;;;;;15.30;7.57;;;;;;;;;;6142450;23;20015;-90
2023/05/05 05:07:35;;;;;;;10.00;6.70;;;;;;;;;;6143190;23;20339;-90
2023/05/05 05:10:22;;;;;;;18.58;8.07;;;;;;;;;;6163830;23;20063;-90
2023/05/05 05:13:07;;;;;;;11.27;7.13;;;;;;;;;;6185873;23;20442;-88
2023/05/05 05:15:51;;;;;;;12.60;7.97;;;;;;;;;;6143010;23;20591;-91
2023/05/05 05:18:36;;;;;;;11.07;8.48;;;;;;;;;;6143147;23;20062;-90
2023/05/05 05:21:21;;;;;;;14.00;7.70;;;;;;;;;;6162972;23;20024;-92
2023/05/05 05:24:05;;;;;;;13.40;7.82;;;;;;;;;;6185944;23;20079;-89
2023/05/05 05:26:50;;;;;;;15.38;8.82;;;;;;;;;;6186039;23;20466;-89
2023/05/05 05:29:35;;;;;;;15.50;8.30;;;;;;;;;;6185910;23;20027;-93
2023/05/05 05:32:19;;;;;;;15.18;7.93;;;;;;;;;;6186033;23;20451;-92
2023/05/05 05:35:04;;;;;;;15.93;7.47;;;;;;;;;;6164047;23;20028;-92
2023/05/05 05:37:50;;;;;;;13.20;8.65;;;;;;;;;;6187102;23;20024;-94
2023/05/05 05:40:35;;;;;;;16.58;10.02;;;;;;;;;;6164195;23;20048;-91
2023/05/05 05:43:20;;;;;;;13.65;8.88;;;;;;;;;;6142745;23;20399;-93
2023/05/05 05:46:05;;;;;;;13.18;8.05;;;;;;;;;;6163706;23;20016;-89
2023/05/05 05:48:52;;;;;;;15.38;9.20;;;;;;;;;;6185959;23;20016;-90
2023/05/05 05:51:36;;;;;;;13.93;9.00;;;;;;;;;;6142358;23;20027;-92
2023/05/05 05:54:21;;;;;;;15.95;9.30;;;;;;;;;;6162966;23;20583;-91
2023/05/05 05:57:05;;;;;;;16.10;8.05;;;;;;;;;;6163941;23;20392;-93
2023/05/05 05:59:50;;;;;;;13.95;8.00;;;;;;;;;;6163886;23;20405;-92
2023/05/05 06:02:35;;;;;;;15.30;9.23;;;;;;;;;;6185195;23;20035;-91
2023/05/05 06:05:19;;;;;;;12.77;8.38;;;;;;;;;;6162790;23;20523;-90
2023/05/05 06:08:04;;;;;;;11.80;7.65;;;;;;;;;;6163374;23;20102;-91
2023/05/05 06:10:48;;;;;;;14.93;9.05;;;;;;;;;;6163264;23;20016;-90
2023/05/05 06:13:33;;;;;;;11.52;8.10;;;;;;;;;;6141929;23;20447;-92
2023/05/05 06:16:17;;;;;;;18.15;8.73;;;;;;;;;;6162453;23;20016;-90
2023/05/05 06:19:02;;;;;;;18.95;7.80;;;;;;;;;;6185443;23;20016;-92
2023/05/05 06:21:46;;;;;;;13.80;7.28;;;;;;;;;;6142488;23;20055;-91
2023/05/05 06:24:31;;;;;;;11.68;7.75;;;;;;;;;;6184945;23;20016;-90
2023/05/05 06:27:16;;;;;;;11.60;7.68;;;;;;;;;;6186148;23;20105;-90
2023/05/05 06:30:00;;;;;;;11.88;7.40;;;;;;;;;;6184752;23;20020;-92
2023/05/05 06:32:45;;;;;;;14.93;7.25;;;;;;;;;;6162909;23;20047;-91
2023/05/05 06:35:30;;;;;;;13.05;7.75;;;;;;;;;;6163652;23;20020;-89
2023/05/05 06:38:15;;;;;;;14.95;8.82;;;;;;;;;;6164150;23;20105;-90
2023/05/05 06:40:59;;;;;;;12.55;7.38;;;;;;;;;;6143004;23;20392;-90
2023/05/05 06:43:44;;;;;;;11.93;7.78;;;;;;;;;;6163086;23;20051;-92
2023/05/05 06:46:29;;;;;;;12.95;9.00;;;;;;;;;;6163269;23;20016;-92
2023/05/05 06:49:14;;;;;;;10.75;6.80;;;;;;;;;;6185858;23;20067;-90
2023/05/05 06:51:58;;;;;;;15.45;7.97;;;;;;;;;;6142777;23;20020;-92
2023/05/05 06:54:43;;;;;;;12.63;7.95;;;;;;;;;;6164964;23;20067;-91
2023/05/05 06:57:28;;;;;;;13.25;8.77;;;;;;;;;;6163442;23;20012;-89
2023/05/05 07:00:13;;;;;;;17.05;7.72;;;;;;;;;;6186172;23;20016;-91
2023/05/05 07:02:58;;;;;;;14.10;8.18;;;;;;;;;;6163499;23;20024;-88
2023/05/05 07:05:42;;;;;;;11.63;8.18;;;;;;;;;;6185029;23;20258;-91
2023/05/05 07:08:27;;;;;;;12.95;8.07;;;;;;;;;;6184584;23;20020;-90
2023/05/05 07:11:12;;;;;;;14.82;8.25;;;;;;;;;;6162594;23;20344;-90
2023/05/05 07:13:56;;;;;;;16.42;8.63;;;;;;;;;;6184914;23;20494;-90
2023/05/05 07:16:41;;;;;;;13.23;7.32;;;;;;;;;;6184524;23;20012;-90
2023/05/05 07:19:25;;;;;;;12.27;7.35;;;;;;;;;;6185056;23;20183;-88
2023/05/05 07:22:10;;;;;;;14.65;8.02;;;;;;;;;;6182619;23;20104;-90
2023/05/05 07:24:55;;;;;;;11.52;7.22;;;;;;;;;;6160605;23;20028;-90
2023/05/05 07:27:40;;;;;;;14.20;7.15;;;;;;;;;;6183675;23;20036;-88
2023/05/05 07:30:25;;;;;;;11.38;8.25;;;;;;;;;;6184444;23;20015;-87
2023/05/05 07:33:10;;;;;;;11.95;7.50;;;;;;;;;;6184366;23;20067;-88
2023/05/05 07:35:55;;;;;;;10.75;7.43;;;;;;;;;;6162112;23;20035;-86
2023/05/05 07:38:40;;;;;;;10.20;7.45;;;;;;;;;;6161805;23;20383;-88
2023/05/05 07:41:24;;;;;;;9.60;7.00;;;;;;;;;;6161972;23;20016;-88
2023/05/05 07:44:09;;;;;;;13.60;6.95;;;;;;;;;;6184490;23;20478;-85
2023/05/05 07:46:53;;;;;;;12.27;7.88;;;;;;;;;;6161567;23;20063;-87
2023/05/05 07:49:38;;;;;;;13.82;7.43;;;;;;;;;;6161688;23;20015;-87
2023/05/05 07:52:22;;;;;;;10.90;7.13;;;;;;;;;;6184149;23;20024;-86
2023/05/05 07:55:07;;;;;;;11.57;7.63;;;;;;;;;;6162039;23;20148;-87
2023/05/05 07:57:52;;;;;;;14.80;7.07;;;;;;;;;;6183867;23;20019;-84
2023/05/05 08:00:39;;;;;;;13.13;7.70;;;;;;;;;;6183736;23;20463;-88
2023/05/05 08:03:24;;;;;;;12.40;7.15;;;;;;;;;;6162063;23;20020;-86
2023/05/05 08:06:09;;;;;;;16.80;8.07;;;;;;;;;;6141344;23;20160;-88
2023/05/05 08:08:54;;;;;;;15.60;8.30;;;;;;;;;;6183961;23;20012;-89
2023/05/05 08:11:38;;;;;;;10.63;7.57;;;;;;;;;;6183664;23;20020;-88
2023/05/05 08:14:23;;;;;;;10.35;7.80;;;;;;;;;;6162004;23;20032;-89
2023/05/05 08:17:08;;;;;;;15.32;8.68;;;;;;;;;;6184209;23;20017;-89
2023/05/05 08:19:52;;;;;;;12.27;8.35;;;;;;;;;;6183766;23;20590;-89
2023/05/05 08:22:37;;;;;;;12.55;8.70;;;;;;;;;;6161481;23;20016;-88
2023/05/05 08:25:21;;;;;;;13.18;7.70;;;;;;;;;;6184317;23;20387;-89
2023/05/05 08:28:06;;;;;;;13.63;7.93;;;;;;;;;;6162156;23;20075;-89
2023/05/05 08:30:51;;;;;;;14.90;9.10;;;;;;;;;;6161430;23;20068;-85
2023/05/05 08:33:35;;;;;;;15.35;10.00;;;;;;;;;;6183966;23;20078;-85
2023/05/05 08:36:20;;;;;;;15.38;9.50;;;;;;;;;;6184243;23;20463;-87
2023/05/05 08:39:05;;;;;;;13.43;9.32;;;;;;;;;;6184678;23;20400;-86
2023/05/05 08:41:50;;;;;;;14.48;9.50;;;;;;;;;;6163537;23;20075;-85
2023/05/05 08:44:35;;;;;;;12.40;9.18;;;;;;;;;;6164041;23;20036;-87
2023/05/05 08:47:20;;;;;;;13.80;9.20;;;;;;;;;;6186186;23;20054;-86
2023/05/05 08:50:05;;;;;;;13.27;9.93;;;;;;;;;;6186302;23;20044;-86
2023/05/05 08:52:52;;;;;;;13.90;10.20;;;;;;;;;;6142674;23;20060;-86
2023/05/05 08:55:50;;;;;;;12.25;9.02;;;18.80;99.90;;;;;;6185900;23;20112;-86
2023/05/05 08:58:36;;;;;;;11.40;9.27;;;18.80;99.90;;;;;;6186028;23;20064;-87
2023/05/05 09:01:21;;;;;;;16.13;9.95;;;;;;;;;;6186007;23;20052;-87
2023/05/05 09:04:07;;;;;;;14.02;9.50;;;18.90;99.90;;;;;;6185939;23;20024;-88
2023/05/05 09:06:52;;;;;;;15.13;9.85;;;;;;;;;;6185263;23;20011;-88
2023/05/05 09:09:37;;;;;;;15.45;9.80;;;;;;;;;;6163680;23;20015;-87
2023/05/05 09:12:22;;;;;;;16.15;9.57;;;;;;;;;;6163600;23;20385;-87
2023/05/05 09:15:08;;;;;;;12.95;8.88;;;;;;;;;;6185984;23;20020;-86
2023/05/05 09:17:55;;;;;;;14.57;9.40;;;19.90;99.90;;;;;;6185466;23;20343;-86
2023/05/05 09:20:40;;;;;;;13.05;9.07;;;;;;;;;;6163431;23;20396;-86
2023/05/05 09:23:25;;;;;;;14.70;9.02;;;;;;;;;;6185940;23;20431;-84
2023/05/05 09:26:09;;;;;;;16.00;9.35;;;;;;;;;;6185846;23;20016;-86
2023/05/05 09:28:54;;;;;;;12.43;9.45;;;;;;;;;;6185741;23;20132;-86
2023/05/05 09:31:39;;;;;;;15.63;10.55;;;;;;;;;;6185594;23;20020;-88
2023/05/05 09:34:24;;;;;;;16.65;10.63;;;;;;;;;;6163484;23;20437;-87
2023/05/05 09:37:09;;;;;;;13.15;10.02;;;;;;;;;;6163407;23;20085;-87
2023/05/05 09:39:54;;;;;;;13.80;10.65;;;;;;;;;;6162986;23;20524;-87
2023/05/05 09:42:39;;;;;;;15.40;10.52;;;19.70;99.90;;;;;;6185660;23;20020;-85
2023/05/05 09:45:25;;;;;;;13.18;10.02;;;;;;;;;;6185624;23;20015;-87
2023/05/05 09:48:26;;;;;;;15.82;11.00;;;19.80;99.90;;;;;;6185544;23;20032;-87
2023/05/05 09:51:11;;;;;;;20.55;14.00;;;;;;;;;;6162663;23;20099;-87
2023/05/05 09:53:56;;;;;;;17.55;13.45;;;;;;;;;;6163022;23;20368;-87
2023/05/05 09:56:41;;;;;;;22.27;13.60;;;;;;;;;;6185601;23;20328;-87
2023/05/05 09:59:25;;;;;;;23.77;14.93;;;;;;;;;;6185622;23;20016;-87
2023/05/05 10:02:11;;;;;;;20.27;14.77;;;19.80;99.90;;;;;;6184946;23;20020;-86
2023/05/05 10:05:05;;;;;;;25.90;13.73;;;;;;;;;;6184913;23;20076;-87
2023/05/05 10:07:51;;;;;;;17.92;12.45;;;;;;;;;;6162430;23;20063;-86
2023/05/05 10:10:36;;;;;;;20.65;12.45;;;;;;;;;;6185445;23;20056;-86
2023/05/05 10:13:22;;;;;;;17.08;11.52;;;20.40;99.90;;;;;;6162442;23;20075;-86
2023/05/05 10:16:08;;;;;;;14.60;12.07;;;;;;;;;;6184585;23;20383;-87
2023/05/05 10:18:53;;;;;;;17.00;12.02;;;;;;;;;;6162429;23;20059;-86
2023/05/05 10:21:40;;;;;;;15.85;11.13;;;20.70;99.90;;;;;;6163134;23;20049;-87
2023/05/05 10:24:46;;;;;;;19.17;12.70;;;;;;;;;;6185207;23;20344;-86
2023/05/05 10:27:38;;;;;;;17.30;11.48;;;20.70;99.90;;;;;;6185259;23;20405;-87
2023/05/05 10:30:30;;;;;;;17.50;11.93;;;20.70;99.90;;;;;;6185233;23;20068;-86
2023/05/05 10:33:18;;;;;;;14.80;10.85;;;20.70;99.90;;;;;;6184713;23;20020;-85
2023/05/05 10:36:05;;;;;;;16.90;11.43;;;20.70;99.90;;;;;;6184707;23;20020;-84
2023/05/05 10:38:53;;;;;;;13.25;11.25;;;;;;;;;;6162535;23;20020;-86
2023/05/05 10:41:38;;;;;;;23.73;12.38;;;;;;;;;;6184963;23;20450;-87
2023/05/05 10:44:23;;;;;;;16.50;11.02;;;;;;;;;;6161533;23;20016;-88
2023/05/05 10:47:08;;;;;;;14.98;10.93;;;20.40;99.90;;;;;;6162668;23;20020;-86
2023/05/05 10:50:12;;;;;;;16.98;11.57;;;20.40;99.90;;;;;;6142119;23;20020;-84
2023/05/05 10:53:07;;;;;;;17.38;11.55;;;;;;;;;;6184750;23;20398;-87
2023/05/05 10:56:10;;;;;;;13.90;10.70;;;;;;;;;;6162694;23;20019;-83
2023/05/05 10:58:55;;;;;;;13.60;10.07;;;;;;;;;;6184709;23;20443;-84
2023/05/05 11:01:40;;;;;;;15.52;10.80;;;;;;;;;;6184495;23;20024;-84
2023/05/05 11:04:24;;;;;;;14.15;9.48;;;;;;;;;;6184945;23;20451;-83
2023/05/05 11:07:09;;;;;;;15.00;8.65;;;;;;;;;;6162329;23;20454;-84
2023/05/05 11:09:55;;;;;;;12.18;8.10;;;;;;;;;;6162572;23;20016;-83
2023/05/05 11:12:51;;;;;;;14.13;10.23;;;;;;;;;;6184651;23;20063;-87
2023/05/05 11:15:36;;;;;;;13.68;10.68;;;;;;;;;;6162482;23;20143;-85
2023/05/05 11:18:37;;;;;;;17.27;10.52;;;;;;;;;;6184805;23;20016;-85
2023/05/05 11:21:23;;;;;;;16.38;10.80;;;;;;;;;;6184904;23;20072;-85
2023/05/05 11:24:28;;;;;;;14.40;10.13;;;21.50;99.90;;;;;;6162298;23;20067;-87
2023/05/05 11:27:12;;;;;;;12.50;8.38;;;;;;;;;;6184152;23;20092;-89
2023/05/05 11:30:03;;;;;;;12.88;8.50;;;;;;;;;;6184863;23;20067;-88
2023/05/05 11:33:07;;;;;;;16.52;8.15;;;;;;;;;;6184409;23;20071;-88
2023/05/05 11:36:00;;;;;;;10.38;7.75;;;21.20;99.90;;;;;;6184708;23;20068;-88
2023/05/05 11:39:05;;;;;;;11.23;7.65;;;21.20;99.90;;;;;;6184974;23;20072;-90
2023/05/05 11:42:21;;;;;;;11.43;7.68;;;21.10;99.90;;;;;;6162373;23;20020;-90
2023/05/05 11:45:22;;;;;;;10.18;7.40;;;21.10;99.90;;;;;;6184287;23;20016;-89
2023/05/05 11:48:28;;;;;;;11.35;5.95;;;;;;;;;;6184212;23;20502;-88
2023/05/05 11:51:16;;;;;;;10.77;6.47;;;;;;;;;;6161851;23;20455;-89
2023/05/05 11:54:01;;;;;;;10.23;5.97;;;;;;;;;;6184543;23;20019;-86
2023/05/05 11:56:53;;;;;;;11.35;5.68;;;21.40;99.90;;;;;;6184572;23;20336;-89
2023/05/05 12:00:07;;;;;;;8.90;5.65;;;21.40;99.90;;;;;;6184479;23;20015;-88
2023/05/05 12:02:56;;;;;;;9.77;5.95;;;;;;;;;;6184489;23;20561;-89
2023/05/05 12:05:41;;;;;;;13.20;6.03;;;;;;;;;;6162172;23;20047;-89
2023/05/05 12:08:25;;;;;;;8.38;5.82;;;;;;;;;;6161947;23;20016;-90
2023/05/05 12:11:10;;;;;;;9.43;5.32;;;;;;;;;;6184107;23;20068;-89
2023/05/05 12:14:10;;;;;;;7.95;5.18;;;;;;;;;;6163718;23;20443;-89
2023/05/05 12:17:07;;;;;;;10.32;6.50;;;21.30;99.90;;;;;;6186893;23;20527;-88
2023/05/05 12:19:53;;;;;;;13.50;7.47;;;21.40;99.90;;;;;;6186831;23;20091;-88
2023/05/05 12:22:38;;;;;;;12.75;7.53;;;;;;;;;;6164972;23;20071;-87
2023/05/05 12:25:23;;;;;;;10.55;7.50;;;;;;;;;;6186106;23;20063;-88
2023/05/05 12:28:08;;;;;;;9.43;6.28;;;;;;;;;;6163978;23;20100;-86
2023/05/05 12:30:59;;;;;;;11.13;6.88;;;;;;;;;;6186810;23;20011;-89
2023/05/05 12:33:43;;;;;;;8.68;5.53;;;;;;;;;;6186800;23;20016;-89
2023/05/05 12:36:29;;;;;;;10.75;6.97;;;;;;;;;;6186191;23;20008;-88
2023/05/05 12:39:14;;;;;;;9.95;6.50;;;;;;;;;;6185077;23;20121;-88
2023/05/05 12:42:05;;;;;;;9.88;5.97;;;;;;;;;;6187061;23;20019;-89
2023/05/05 12:44:50;;;;;;;7.45;4.85;;;;;;;;;;6164507;23;20020;-88
2023/05/05 12:47:35;;;;;;;8.85;5.00;;;;;;;;;;6186572;23;20059;-89
2023/05/05 12:50:30;;;;;;;8.50;5.07;;;;;;;;;;6186177;23;20019;-88
2023/05/05 12:53:21;;;;;;;9.10;4.93;;;20.30;99.90;;;;;;6185847;23;20020;-89
2023/05/05 12:56:06;;;;;;;10.13;4.90;;;;;;;;;;6164130;23;20076;-89
2023/05/05 12:58:54;;;;;;;12.82;5.72;;;;;;;;;;6164026;23;20016;-89
2023/05/05 13:01:49;;;;;;;9.65;5.70;;;;;;;;;;6163957;23;20031;-88
2023/05/05 13:04:34;;;;;;;10.55;5.65;;;;;;;;;;6185956;23;20340;-89
2023/05/05 13:07:20;;;;;;;10.02;5.45;;;;;;;;;;6163687;23;20019;-88
2023/05/05 13:10:06;;;;;;;12.93;5.78;;;;;;;;;;6163924;23;20020;-89
2023/05/05 13:12:55;;;;;;;12.57;5.22;;;;;;;;;;6193991;23;20500;-94
2023/05/05 13:15:40;;;;;;;17.20;6.07;;;;;;;;;;6202508;23;20020;-94
2023/05/05 13:18:24;;;;;;;11.98;5.18;;;;;;;;;;6164508;23;20028;-94
2023/05/05 13:21:09;;;;;;;13.95;5.60;;;;;;;;;;6188701;23;20040;-95
2023/05/05 13:23:53;;;;;;;9.85;4.72;;;;;;;;;;6189609;23;20348;-94
2023/05/05 13:26:38;;;;;;;11.93;5.47;;;;;;;;;;6163967;23;20016;-93
2023/05/05 13:29:23;;;;;;;11.38;5.75;;;;;;;;;;6186253;23;20032;-94
2023/05/05 13:32:07;;;;;;;13.15;5.38;;;;;;;;;;6164810;23;20020;-95
2023/05/05 13:34:52;;;;;;;9.95;5.50;;;;;;;;;;6164539;23;20023;-95
2023/05/05 13:37:37;;;;;;;7.82;4.20;;;;;;;;;;6164439;23;20352;-96
2023/05/05 13:40:21;;;;;;;7.32;3.78;;;;;;;;;;6187342;23;20340;-94
2023/05/05 13:43:06;;;;;;;8.93;3.28;;;;;;;;;;6166200;23;20069;-93
2023/05/05 13:45:52;;;;;;;7.47;2.88;;;;;;;;;;6188357;23;20036;-92
2023/05/05 13:48:36;;;;;;;4.93;2.22;;;;;;;;;;6187670;23;20159;-93
2023/05/05 13:51:21;;;;;;;7.13;2.25;;;;;;;;;;6186731;23;20059;-94
2023/05/05 13:54:06;;;;;;;8.02;2.10;;;;;;;;;;6186862;23;20020;-92
2023/05/05 13:56:51;;;;;;;8.10;3.53;;;;;;;;;;6164197;23;20012;-92
2023/05/05 13:59:35;;;;;;;7.22;2.30;;;;;;;;;;6163671;23;20066;-92
2023/05/05 14:02:20;;;;;;;8.50;2.15;;;;;;;;;;6143088;23;20024;-93
2023/05/05 14:05:05;;;;;;;5.38;2.30;;;;;;;;;;6164593;23;20333;-94
2023/05/05 14:07:50;;;;;;;6.32;2.50;;;;;;;;;;6142723;23;20020;-90
2023/05/05 14:10:35;;;;;;;9.77;2.80;;;;;;;;;;6163105;23;20383;-91
2023/05/05 14:13:19;;;;;;;10.10;3.75;;;;;;;;;;6142473;23;20096;-89
2023/05/05 14:16:04;;;;;;;10.48;2.95;;;;;;;;;;6184973;23;20428;-93
2023/05/05 14:18:49;;;;;;;9.35;3.60;;;;;;;;;;6185976;23;20059;-91
2023/05/05 14:21:34;;;;;;;9.10;3.50;;;;;;;;;;6185677;23;20023;-94
2023/05/05 14:24:18;;;;;;;9.80;4.15;;;;;;;;;;6146140;23;20043;-92
2023/05/05 14:27:03;;;;;;;10.15;4.05;;;;;;;;;;6186549;23;20056;-91
2023/05/05 14:29:48;;;;;;;9.55;4.13;;;;;;;;;;6163602;23;20020;-90
2023/05/05 14:32:32;;;;;;;10.43;4.78;;;;;;;;;;6185504;23;20457;-90
2023/05/05 14:35:17;;;;;;;12.65;5.25;;;;;;;;;;6163748;23;20084;-91
2023/05/05 14:38:01;;;;;;;9.73;4.95;;;;;;;;;;6187471;23;20400;-89
2023/05/05 14:40:46;;;;;;;15.52;6.18;;;;;;;;;;6164709;23;20035;-90
2023/05/05 14:43:31;;;;;;;16.05;7.25;;;;;;;;;;6144404;23;20031;-90
2023/05/05 14:46:15;;;;;;;14.60;6.93;;;;;;;;;;6187531;23;20060;-91
2023/05/05 14:49:00;;;;;;;11.90;6.30;;;;;;;;;;6187011;23;20068;-90
2023/05/05 14:51:45;;;;;;;14.15;7.68;;;;;;;;;;6164571;23;20011;-90
2023/05/05 14:54:30;;;;;;;14.43;7.45;;;;;;;;;;6192630;23;20020;-90
2023/05/05 14:57:14;;;;;;;14.60;7.63;;;;;;;;;;6181224;23;20043;-90
2023/05/05 15:00:02;;;;;;;12.95;7.93;;;;;;;;;;6173281;23;20020;-89
2023/05/05 15:02:47;;;;;;;15.45;7.93;;;;;;;;;;6168118;23;20020;-90
2023/05/05 15:05:32;;;;;;;12.98;7.68;;;;;;;;;;6187684;23;20020;-91
2023/05/05 15:08:24;;;;;;;11.30;6.05;;;;;;;;;;5017230;27;1333279;-90
2023/05/05 15:11:09;;;;;;;9.00;4.88;;;;;;;;;;5031641;28;20040;-89
2023/05/05 15:13:58;;;;;;;14.52;4.78;;;;;;;;;;5046074;28;20048;-88
2023/05/05 15:16:46;;;;;;;6.38;3.63;;;;;;;;;;5042268;28;20457;-89
2023/05/05 15:19:31;;;;;;;10.02;4.20;;;;;;;;;;5048175;28;20054;-88
2023/05/05 15:22:15;;;;;;;7.40;3.50;;;;;;;;;;5048649;28;20093;-89
2023/05/05 15:25:00;;;;;;;7.18;3.80;;;;;;;;;;5037862;28;20028;-89
2023/05/05 15:27:44;;;;;;;7.68;3.22;;;;;;;;;;5033602;28;20121;-88
2023/05/05 15:30:29;;;;;;;6.85;3.42;;;;;;;;;;5038643;28;20048;-88
2023/05/05 15:33:13;;;;;;;6.43;2.97;;;;;;;;;;5029436;28;20041;-88
2023/05/05 15:35:58;;;;;;;8.02;3.38;;;;;;;;;;5029660;28;20044;-90
2023/05/05 15:38:43;;;;;;;5.65;3.05;;;;;;;;;;5029421;28;20091;-93
2023/05/05 15:41:28;;;;;;;11.30;2.97;;;;;;;;;;5045576;28;20106;-92
2023/05/05 15:44:16;;;;;;;12.85;3.40;;;;;;;;;;5043875;28;20422;-91
2023/05/05 15:47:00;;;;;;;10.57;3.50;;;;;;;;;;5034108;28;20067;-92
2023/05/05 15:49:45;;;;;;;5.63;2.47;;;;;;;;;;5037634;28;20072;-92
2023/05/05 15:52:30;;;;;;;6.43;2.67;;;;;;;;;;5033743;28;20092;-92
2023/05/05 15:55:14;;;;;;;9.90;3.25;;;;;;;;;;5046540;28;20513;-92
2023/05/05 15:57:59;;;;;;;5.15;2.92;;;;;;;;;;5032361;28;20041;-90
2023/05/05 16:00:44;;;;;;;7.47;2.63;;;;;;;;;;5052356;28;20032;-93
2023/05/05 16:03:29;;;;;;;11.80;3.05;;;;;;;;;;5041625;28;20053;-93
2023/05/05 16:06:14;;;;;;;8.88;3.05;;;;;;;;;;5062611;28;20036;-90
2023/05/05 16:08:59;;;;;;;7.72;3.10;;;;;;;;;;5068707;28;20051;-92
2023/05/05 16:11:44;;;;;;;7.35;3.28;;;;;;;;;;5069366;28;20132;-93